Portada
METAR-TAF:

METAR-TAF

Aeroports :

Cranfield, Anglaterra

latitud: 52-04N, longitud: 000-37W, altitud: 111 m

Observació

L'informe es va fer fa 37 minuts, a les 16:20 UTC
Vent 11 kt del Sud-Oest
Temperatura 5°C
Humitat 81%
Pressió 996 hPa
Visibilitat 10 km o més
Escasses núvols a una alçada de 1900 ft

METAR: EGTC 281620Z 23011KT 9999 FEW019 05/02 Q0996

Hora: 16:57 (16:57 UTC)

Pronòstic

L'informe es va fer fa 2 hores i 51 minuts, a les 14:06 UTC
Pronòstic vàlid del 28 a les 15 UTC al 28 a les 18 UTC
Vent 14 kt del Oest/Sud-Oest
Visibilitat 10 km o més
Escasses núvols a una alçada de 2500 ft
Probabilitat 40% :
Temporalment
l' 28 a les 15 UTC al 28 a les 18 UTC
Vent 16 kt del Oest/Sud-Oest amb ràfegues de 26 kt

TAF: EGTC 281406Z 2815/2818 24014KT 9999 FEW025 PROB40 TEMPO 2815/2818 25016G26KT

Observacions i pronòstics meteorològics de més de 4000 aeroports (METAR i TAF).

Les estacions disponibles són els punts grocs i vermells al mapa.

Posi el ratolí al punt desitjat per veure el nom de l'estació.

Feu clic per veure les observacions i els pronòstics meteorològics.

Per canviar el mapa: feu clic els botons verds amb una creu de color negre per apropar; al botó verd amb un guió per allunyar la imatge; o en les fletxes verdes per a mapes adjacents.


METAR-TAF: